createdAt,value
2023-03-13T00:00:00.539Z,14.40
2023-03-13T00:00:10.570Z,16.70
2023-03-13T00:00:20.550Z,10.70
2023-03-13T00:00:30.592Z,14.90
2023-03-13T00:00:40.531Z,9.90
2023-03-13T00:00:50.542Z,15.00
2023-03-13T00:01:00.585Z,17.80
2023-03-13T00:01:10.572Z,20.10
2023-03-13T00:01:20.545Z,17.20
2023-03-13T00:01:30.542Z,12.70
2023-03-13T00:01:41.635Z,10.60
2023-03-13T00:01:50.601Z,13.10
2023-03-13T00:02:00.561Z,12.70
2023-03-13T00:02:10.614Z,14.20
2023-03-13T00:02:20.620Z,17.70
2023-03-13T00:02:30.637Z,15.90
2023-03-13T00:02:40.569Z,11.30
2023-03-13T00:02:50.527Z,10.80
2023-03-13T00:03:00.562Z,10.80
2023-03-13T00:03:10.544Z,8.80
2023-03-13T00:03:20.557Z,10.40
2023-03-13T00:03:30.526Z,14.80
2023-03-13T00:03:40.547Z,20.30
2023-03-13T00:03:50.629Z,17.80
2023-03-13T00:04:00.522Z,15.30
2023-03-13T00:04:10.543Z,14.40
2023-03-13T00:04:20.622Z,14.60
2023-03-13T00:04:30.536Z,12.60
2023-03-13T00:04:40.563Z,14.70
2023-03-13T00:04:50.573Z,15.20
2023-03-13T00:05:00.542Z,15.20
2023-03-13T00:05:10.600Z,8.30
2023-03-13T00:05:20.576Z,7.90
2023-03-13T00:05:30.518Z,7.60
2023-03-13T00:05:40.532Z,8.50
2023-03-13T00:05:50.573Z,9.60
2023-03-13T00:06:00.513Z,9.50
2023-03-13T00:06:10.569Z,9.50
2023-03-13T00:06:20.581Z,12.50
2023-03-13T00:06:30.527Z,12.50
2023-03-13T00:06:40.530Z,14.60
2023-03-13T00:06:50.551Z,15.20
2023-03-13T00:07:00.522Z,21.40
2023-03-13T00:07:10.516Z,17.30
2023-03-13T00:07:20.603Z,10.00
2023-03-13T00:07:30.528Z,8.90
2023-03-13T00:07:40.519Z,9.30
2023-03-13T00:07:50.596Z,11.30
2023-03-13T00:08:00.597Z,15.90
2023-03-13T00:08:10.517Z,15.80
2023-03-13T00:08:20.510Z,17.50
2023-03-13T00:08:30.509Z,17.10
2023-03-13T00:08:40.520Z,17.20
2023-03-13T00:08:50.525Z,16.60
2023-03-13T00:09:00.510Z,17.20
2023-03-13T00:09:10.525Z,21.50
2023-03-13T00:09:20.507Z,17.00
2023-03-13T00:09:30.496Z,17.10
2023-03-13T00:09:40.509Z,16.40
2023-03-13T00:09:50.515Z,19.30
2023-03-13T00:10:00.658Z,14.60
2023-03-13T00:10:10.510Z,13.60
2023-03-13T00:10:20.516Z,15.00
2023-03-13T00:10:30.509Z,14.30
2023-03-13T00:10:40.497Z,11.80
2023-03-13T00:10:51.008Z,14.90
2023-03-13T00:11:00.508Z,15.90
2023-03-13T00:11:10.504Z,15.60
2023-03-13T00:11:20.503Z,9.30
2023-03-13T00:11:30.546Z,9.70
2023-03-13T00:11:40.504Z,11.00
2023-03-13T00:11:50.485Z,15.20
2023-03-13T00:12:01.023Z,15.00
2023-03-13T00:12:10.602Z,19.10
2023-03-13T00:12:20.480Z,22.50
2023-03-13T00:12:30.620Z,24.90
2023-03-13T00:12:40.498Z,24.70
2023-03-13T00:12:50.587Z,16.80
2023-03-13T00:13:00.551Z,10.10
2023-03-13T00:13:10.496Z,8.40
2023-03-13T00:13:20.506Z,16.10
2023-03-13T00:13:30.488Z,19.20
2023-03-13T00:13:40.487Z,18.30
2023-03-13T00:13:50.507Z,9.20
2023-03-13T00:14:00.503Z,15.10
2023-03-13T00:14:11.005Z,17.00
2023-03-13T00:14:20.496Z,28.20
2023-03-13T00:14:30.475Z,21.40
2023-03-13T00:14:40.544Z,20.00
2023-03-13T00:14:50.497Z,11.00
2023-03-13T00:15:00.478Z,18.70
2023-03-13T00:15:10.474Z,26.30
2023-03-13T00:15:20.502Z,26.10
2023-03-13T00:15:30.638Z,22.70
2023-03-13T00:15:40.468Z,14.60
2023-03-13T00:15:50.517Z,12.40
2023-03-13T00:16:00.477Z,8.60
2023-03-13T00:16:10.540Z,10.30
2023-03-13T00:16:20.635Z,10.20
2023-03-13T00:16:30.677Z,10.90
2023-03-13T00:16:40.556Z,14.00
2023-03-13T00:16:50.524Z,21.20
2023-03-13T00:17:00.592Z,22.70
2023-03-13T00:17:10.526Z,24.90
2023-03-13T00:17:23.072Z,22.30
2023-03-13T00:17:30.494Z,32.00
2023-03-13T00:17:40.530Z,24.30
2023-03-13T00:17:50.470Z,22.50
2023-03-13T00:18:00.511Z,14.30
2023-03-13T00:18:10.512Z,19.30
2023-03-13T00:18:21.012Z,24.60
2023-03-13T00:18:30.457Z,21.00
2023-03-13T00:18:40.485Z,21.60
2023-03-13T00:18:50.529Z,15.60
2023-03-13T00:19:00.460Z,18.30
2023-03-13T00:19:10.464Z,14.20
2023-03-13T00:19:20.989Z,15.50
2023-03-13T00:19:31.025Z,13.00
2023-03-13T00:19:40.476Z,10.30
2023-03-13T00:19:50.463Z,17.40
2023-03-13T00:20:00.462Z,24.10
2023-03-13T00:20:10.469Z,35.40
2023-03-13T00:20:20.463Z,33.10
2023-03-13T00:20:30.581Z,26.00
2023-03-13T00:20:40.465Z,16.30
2023-03-13T00:20:50.442Z,11.10
2023-03-13T00:21:00.466Z,15.30
2023-03-13T00:21:10.451Z,18.20
2023-03-13T00:21:20.441Z,14.40
2023-03-13T00:21:30.478Z,14.00
2023-03-13T00:21:40.492Z,14.20
2023-03-13T00:21:50.438Z,15.80
2023-03-13T00:22:00.535Z,18.00
2023-03-13T00:22:10.560Z,24.60
2023-03-13T00:22:20.457Z,27.20
2023-03-13T00:22:30.479Z,23.30
2023-03-13T00:22:40.584Z,16.20
2023-03-13T00:22:50.448Z,18.40
2023-03-13T00:23:00.469Z,16.70
2023-03-13T00:23:10.518Z,17.10
2023-03-13T00:23:20.552Z,11.40
2023-03-13T00:23:30.453Z,20.40
2023-03-13T00:23:40.479Z,17.80
2023-03-13T00:23:50.441Z,20.30
2023-03-13T00:24:00.463Z,18.70
2023-03-13T00:24:10.452Z,18.50
2023-03-13T00:24:21.005Z,13.70
2023-03-13T00:24:31.021Z,14.10
2023-03-13T00:24:40.525Z,16.80
2023-03-13T00:24:50.466Z,22.70
2023-03-13T00:25:00.427Z,19.30
2023-03-13T00:25:10.431Z,14.70
2023-03-13T00:25:20.463Z,10.60
2023-03-13T00:25:30.439Z,12.40
2023-03-13T00:25:40.432Z,12.40
2023-03-13T00:25:50.440Z,13.30
2023-03-13T00:26:00.434Z,13.70
2023-03-13T00:26:10.471Z,17.40
2023-03-13T00:26:20.441Z,14.50
2023-03-13T00:26:30.478Z,9.40
2023-03-13T00:26:41.022Z,8.40
2023-03-13T00:26:50.424Z,17.30
2023-03-13T00:27:00.438Z,21.90
2023-03-13T00:27:10.432Z,21.80
2023-03-13T00:27:20.447Z,15.30
2023-03-13T00:27:30.446Z,15.10
2023-03-13T00:27:40.454Z,17.50
2023-03-13T00:27:51.013Z,15.00
2023-03-13T00:28:00.416Z,15.60
2023-03-13T00:28:10.437Z,15.10
2023-03-13T00:28:20.417Z,15.60
2023-03-13T00:28:32.553Z,10.00
2023-03-13T00:28:41.026Z,11.70
2023-03-13T00:28:50.646Z,8.40
2023-03-13T00:29:00.449Z,12.80
2023-03-13T00:29:10.432Z,13.60
2023-03-13T00:29:20.406Z,13.30
2023-03-13T00:29:30.429Z,16.80
2023-03-13T00:29:40.459Z,20.30
2023-03-13T00:29:50.405Z,22.90
2023-03-13T00:30:01.052Z,21.40
2023-03-13T00:30:10.447Z,15.90
2023-03-13T00:30:20.449Z,17.50
2023-03-13T00:30:30.459Z,12.90
2023-03-13T00:30:40.454Z,14.80
2023-03-13T00:30:51.029Z,16.60
2023-03-13T00:31:00.470Z,18.50
2023-03-13T00:31:11.047Z,16.40
2023-03-13T00:31:20.539Z,12.80
2023-03-13T00:31:30.573Z,17.80
2023-03-13T00:31:40.462Z,27.30
2023-03-13T00:31:50.509Z,32.20
2023-03-13T00:32:00.460Z,22.70
2023-03-13T00:32:10.434Z,17.40
2023-03-13T00:32:20.427Z,19.40
2023-03-13T00:32:30.413Z,23.90
2023-03-13T00:32:40.446Z,23.70
2023-03-13T00:32:50.452Z,21.60
2023-03-13T00:33:00.615Z,26.40
2023-03-13T00:33:10.392Z,24.80
2023-03-13T00:33:20.408Z,22.10
2023-03-13T00:33:30.443Z,17.50
2023-03-13T00:33:40.996Z,12.90
2023-03-13T00:33:50.485Z,20.80
2023-03-13T00:34:00.407Z,20.90
2023-03-13T00:34:10.390Z,28.40
2023-03-13T00:34:20.411Z,18.60
2023-03-13T00:34:30.393Z,16.30
2023-03-13T00:34:40.392Z,11.40
2023-03-13T00:34:50.415Z,13.30
2023-03-13T00:35:01.025Z,13.20
2023-03-13T00:35:10.528Z,10.60
2023-03-13T00:35:20.435Z,14.40
2023-03-13T00:35:30.427Z,14.70
2023-03-13T00:35:40.460Z,20.90
2023-03-13T00:35:50.455Z,17.70
2023-03-13T00:36:00.399Z,15.40
2023-03-13T00:36:10.382Z,16.60
2023-03-13T00:36:20.473Z,11.80
2023-03-13T00:36:30.387Z,14.00
2023-03-13T00:36:40.381Z,11.20
2023-03-13T00:36:50.392Z,17.20
2023-03-13T00:37:01.002Z,20.80
2023-03-13T00:37:10.527Z,23.40
2023-03-13T00:37:20.374Z,26.80
2023-03-13T00:37:30.401Z,33.20
2023-03-13T00:37:40.380Z,36.80
2023-03-13T00:37:50.381Z,39.10
2023-03-13T00:38:00.388Z,33.30
2023-03-13T00:38:10.379Z,24.30
2023-03-13T00:38:20.373Z,20.70
2023-03-13T00:38:30.389Z,13.90
2023-03-13T00:38:40.428Z,12.10
2023-03-13T00:38:50.460Z,8.50
2023-03-13T00:39:00.378Z,9.10
2023-03-13T00:39:11.034Z,16.30
2023-03-13T00:39:20.605Z,16.10
2023-03-13T00:39:30.366Z,28.70
2023-03-13T00:39:40.425Z,29.70
2023-03-13T00:39:50.369Z,35.60
2023-03-13T00:40:00.374Z,25.00
2023-03-13T00:40:10.399Z,25.60
2023-03-13T00:40:21.104Z,22.50
2023-03-13T00:40:30.391Z,30.30
2023-03-13T00:40:40.393Z,24.10
2023-03-13T00:40:50.375Z,23.00
2023-03-13T00:41:00.389Z,19.40
2023-03-13T00:41:11.000Z,23.60
2023-03-13T00:41:20.482Z,30.50
2023-03-13T00:41:30.366Z,30.40
2023-03-13T00:41:40.400Z,24.80
2023-03-13T00:41:50.483Z,18.90
2023-03-13T00:42:00.362Z,12.70
2023-03-13T00:42:10.352Z,10.90
2023-03-13T00:42:20.373Z,10.90
2023-03-13T00:42:30.378Z,13.10
2023-03-13T00:42:40.352Z,17.00
2023-03-13T00:42:50.382Z,14.90
2023-03-13T00:43:00.358Z,15.70
2023-03-13T00:43:10.354Z,11.60
2023-03-13T00:43:21.003Z,14.60
2023-03-13T00:43:30.363Z,14.80
2023-03-13T00:43:40.399Z,32.70
2023-03-13T00:43:50.391Z,31.60
2023-03-13T00:44:00.399Z,33.70
2023-03-13T00:44:10.380Z,24.60
2023-03-13T00:44:20.357Z,24.40
2023-03-13T00:44:30.348Z,16.90
2023-03-13T00:44:40.362Z,13.50
2023-03-13T00:44:50.364Z,13.50
2023-03-13T00:45:00.355Z,23.60
2023-03-13T00:45:10.369Z,25.80
2023-03-13T00:45:20.369Z,21.90
2023-03-13T00:45:30.342Z,14.20
2023-03-13T00:45:40.336Z,16.00
2023-03-13T00:45:50.431Z,19.90
2023-03-13T00:46:00.414Z,26.10
2023-03-13T00:46:10.369Z,20.80
2023-03-13T00:46:20.415Z,18.80
2023-03-13T00:46:30.481Z,15.20
2023-03-13T00:46:40.350Z,14.60
2023-03-13T00:46:50.454Z,14.90
2023-03-13T00:47:00.341Z,18.70
2023-03-13T00:47:10.404Z,26.10
2023-03-13T00:47:20.354Z,30.30
2023-03-13T00:47:31.019Z,25.90
2023-03-13T00:47:40.338Z,22.80
2023-03-13T00:47:50.359Z,20.60
2023-03-13T00:48:00.349Z,29.30
2023-03-13T00:48:13.042Z,23.60
2023-03-13T00:48:20.324Z,24.40
2023-03-13T00:48:30.325Z,15.40
2023-03-13T00:48:40.338Z,16.00
2023-03-13T00:48:50.375Z,19.80
2023-03-13T00:49:00.331Z,22.40
2023-03-13T00:49:10.369Z,25.80
2023-03-13T00:49:20.326Z,21.10
2023-03-13T00:49:30.369Z,16.20
2023-03-13T00:49:40.394Z,15.10
2023-03-13T00:49:50.335Z,13.60
2023-03-13T00:50:00.331Z,19.70
2023-03-13T00:50:10.356Z,18.60
2023-03-13T00:50:20.331Z,20.20
2023-03-13T00:50:30.332Z,16.40
2023-03-13T00:50:40.331Z,26.90
2023-03-13T00:50:50.327Z,28.40
2023-03-13T00:51:00.334Z,31.20
2023-03-13T00:51:11.020Z,19.90
2023-03-13T00:51:20.323Z,21.80
2023-03-13T00:51:30.340Z,19.90
2023-03-13T00:51:41.021Z,22.50
2023-03-13T00:51:50.324Z,14.60
2023-03-13T00:52:00.331Z,18.10
2023-03-13T00:52:10.311Z,17.00
2023-03-13T00:52:20.313Z,19.40
2023-03-13T00:52:30.318Z,12.90
2023-03-13T00:52:40.314Z,16.20
2023-03-13T00:52:51.036Z,13.80
2023-03-13T00:53:00.322Z,13.80
2023-03-13T00:53:10.320Z,9.20
2023-03-13T00:53:20.354Z,17.00
2023-03-13T00:53:30.331Z,22.40
2023-03-13T00:53:40.323Z,22.00
2023-03-13T00:53:50.425Z,15.90
2023-03-13T00:54:00.369Z,15.80
2023-03-13T00:54:10.308Z,19.80
2023-03-13T00:54:20.366Z,20.10
2023-03-13T00:54:30.308Z,19.60
2023-03-13T00:54:40.427Z,21.00
2023-03-13T00:54:50.311Z,18.90
2023-03-13T00:55:00.306Z,22.30
2023-03-13T00:55:10.306Z,25.60
2023-03-13T00:55:20.322Z,29.90
2023-03-13T00:55:30.301Z,22.60
2023-03-13T00:55:40.303Z,15.90
2023-03-13T00:55:51.053Z,14.80
2023-03-13T00:56:00.306Z,18.00
2023-03-13T00:56:10.315Z,18.20
2023-03-13T00:56:20.325Z,12.10
2023-03-13T00:56:30.312Z,12.30
2023-03-13T00:56:40.386Z,15.40
2023-03-13T00:56:50.314Z,22.90
2023-03-13T00:57:00.312Z,18.70
2023-03-13T00:57:10.305Z,28.80
2023-03-13T00:57:20.404Z,25.20
2023-03-13T00:57:30.338Z,25.40
2023-03-13T00:57:40.313Z,23.00
2023-03-13T00:57:50.598Z,25.70
2023-03-13T00:58:00.389Z,29.90
2023-03-13T00:58:10.287Z,25.10
2023-03-13T00:58:20.288Z,19.10
2023-03-13T00:58:30.306Z,23.50
2023-03-13T00:58:40.342Z,15.10
2023-03-13T00:58:50.295Z,17.00
2023-03-13T00:59:00.295Z,19.10
2023-03-13T00:59:10.303Z,27.90
2023-03-13T00:59:21.037Z,29.80
2023-03-13T00:59:30.375Z,21.80
2023-03-13T00:59:41.017Z,20.80
2023-03-13T00:59:50.298Z,18.40
2023-03-13T01:00:01.010Z,24.40
2023-03-13T01:00:10.283Z,19.00
2023-03-13T01:00:20.274Z,19.20
2023-03-13T01:00:30.277Z,12.90
2023-03-13T01:00:40.290Z,21.10
2023-03-13T01:00:50.279Z,19.10
2023-03-13T01:01:00.305Z,21.60
2023-03-13T01:01:10.287Z,14.80
2023-03-13T01:01:20.271Z,19.80
2023-03-13T01:01:30.277Z,18.60
2023-03-13T01:01:40.308Z,18.00
2023-03-13T01:01:50.280Z,17.50
2023-03-13T01:02:00.324Z,27.40
2023-03-13T01:02:10.512Z,28.20
2023-03-13T01:02:20.582Z,28.80
2023-03-13T01:02:30.415Z,17.10
2023-03-13T01:02:40.438Z,19.60
2023-03-13T01:02:50.410Z,14.60
2023-03-13T01:03:00.437Z,23.20
2023-03-13T01:03:10.518Z,25.30
2023-03-13T01:03:20.441Z,29.70
2023-03-13T01:03:30.326Z,27.30
2023-03-13T01:03:40.337Z,29.00
2023-03-13T01:03:50.398Z,27.40
2023-03-13T01:04:00.264Z,19.30
2023-03-13T01:04:11.037Z,11.30
2023-03-13T01:04:20.426Z,11.80
2023-03-13T01:04:30.315Z,16.00
2023-03-13T01:04:40.336Z,22.50
2023-03-13T01:04:50.267Z,19.30
2023-03-13T01:05:00.298Z,22.20
2023-03-13T01:05:10.368Z,21.50
2023-03-13T01:05:20.292Z,22.20
2023-03-13T01:05:31.068Z,18.80
2023-03-13T01:05:40.258Z,17.80
2023-03-13T01:05:50.275Z,17.50
2023-03-13T01:06:00.262Z,18.10
2023-03-13T01:06:10.370Z,16.30
2023-03-13T01:06:20.367Z,20.50
2023-03-13T01:06:30.261Z,21.70
2023-03-13T01:06:40.364Z,20.30
2023-03-13T01:06:50.256Z,17.60
2023-03-13T01:07:01.005Z,19.10
2023-03-13T01:07:10.272Z,21.00
2023-03-13T01:07:20.306Z,27.10
2023-03-13T01:07:30.250Z,27.80
2023-03-13T01:07:40.269Z,26.30
2023-03-13T01:07:53.071Z,18.10
2023-03-13T01:08:00.254Z,17.60
2023-03-13T01:08:10.255Z,23.40
2023-03-13T01:08:21.025Z,29.80
2023-03-13T01:08:30.272Z,33.80
2023-03-13T01:08:40.268Z,32.70
2023-03-13T01:08:50.283Z,31.50
2023-03-13T01:09:00.260Z,22.10
2023-03-13T01:09:10.303Z,19.10
2023-03-13T01:09:20.300Z,19.10
2023-03-13T01:09:30.249Z,29.20
2023-03-13T01:09:40.247Z,33.50
2023-03-13T01:09:50.326Z,31.40
2023-03-13T01:10:00.265Z,25.10
2023-03-13T01:10:10.290Z,23.80
2023-03-13T01:10:20.261Z,23.60
2023-03-13T01:10:30.346Z,23.30
2023-03-13T01:10:40.255Z,14.40
2023-03-13T01:10:50.242Z,14.70
2023-03-13T01:11:00.262Z,12.60
2023-03-13T01:11:10.254Z,12.70
2023-03-13T01:11:20.245Z,9.70
2023-03-13T01:11:30.307Z,16.70
2023-03-13T01:11:40.302Z,21.20
2023-03-13T01:11:53.104Z,29.20
2023-03-13T01:12:00.260Z,25.10
2023-03-13T01:12:10.239Z,23.30
2023-03-13T01:12:20.263Z,25.60
2023-03-13T01:12:30.294Z,22.30
2023-03-13T01:12:40.229Z,22.30
2023-03-13T01:12:50.250Z,12.50
2023-03-13T01:13:00.258Z,13.90
2023-03-13T01:13:10.248Z,15.50
2023-03-13T01:13:20.264Z,18.60
2023-03-13T01:13:30.257Z,15.70
2023-03-13T01:13:40.244Z,15.50
2023-03-13T01:13:50.255Z,15.90
2023-03-13T01:14:00.318Z,20.90
2023-03-13T01:14:10.223Z,30.10
2023-03-13T01:14:20.279Z,28.90
2023-03-13T01:14:30.769Z,24.20
2023-03-13T01:14:40.324Z,13.20
2023-03-13T01:14:51.035Z,17.20
2023-03-13T01:15:00.299Z,14.70
2023-03-13T01:15:10.247Z,22.10
2023-03-13T01:15:20.217Z,23.60
2023-03-13T01:15:30.360Z,29.90
2023-03-13T01:15:40.278Z,27.50
2023-03-13T01:15:50.287Z,19.50
2023-03-13T01:16:01.063Z,22.40
2023-03-13T01:16:10.304Z,17.50
2023-03-13T01:16:20.406Z,25.60
2023-03-13T01:16:30.472Z,16.40
2023-03-13T01:16:41.044Z,21.40
2023-03-13T01:16:50.386Z,20.90
2023-03-13T01:17:00.222Z,21.70
2023-03-13T01:17:10.219Z,22.40
2023-03-13T01:17:20.243Z,14.80
2023-03-13T01:17:30.225Z,14.10
2023-03-13T01:17:40.237Z,12.80
2023-03-13T01:17:50.215Z,13.10
2023-03-13T01:18:00.350Z,13.00
2023-03-13T01:18:10.243Z,21.10
2023-03-13T01:18:20.214Z,34.40
2023-03-13T01:18:30.249Z,39.60
2023-03-13T01:18:40.247Z,37.20
2023-03-13T01:18:50.281Z,23.40
2023-03-13T01:19:00.231Z,25.60
2023-03-13T01:19:13.033Z,27.10
2023-03-13T01:19:20.210Z,28.00
2023-03-13T01:19:30.226Z,23.60
2023-03-13T01:19:40.239Z,15.50
2023-03-13T01:19:50.215Z,19.50
2023-03-13T01:20:00.245Z,21.60
2023-03-13T01:20:10.267Z,22.70
2023-03-13T01:20:20.232Z,20.00
2023-03-13T01:20:30.232Z,17.00
2023-03-13T01:20:40.281Z,17.40
2023-03-13T01:20:51.033Z,29.10
2023-03-13T01:21:00.211Z,31.70
2023-03-13T01:21:10.198Z,26.80
2023-03-13T01:21:20.205Z,20.20
2023-03-13T01:21:30.214Z,17.90
2023-03-13T01:21:40.195Z,22.00
2023-03-13T01:21:50.207Z,17.50
2023-03-13T01:22:00.235Z,21.60
2023-03-13T01:22:10.201Z,21.50
2023-03-13T01:22:20.219Z,17.10
2023-03-13T01:22:30.243Z,13.50
2023-03-13T01:22:40.195Z,13.80
2023-03-13T01:22:51.033Z,26.90
2023-03-13T01:23:00.349Z,23.80
2023-03-13T01:23:10.195Z,23.70
2023-03-13T01:23:21.037Z,21.20
2023-03-13T01:23:31.034Z,21.40
2023-03-13T01:23:40.218Z,29.40
2023-03-13T01:23:50.188Z,20.60
2023-03-13T01:24:00.185Z,33.80
2023-03-13T01:24:10.192Z,30.00
2023-03-13T01:24:23.039Z,38.50
2023-03-13T01:24:30.179Z,25.10
2023-03-13T01:24:47.171Z,27.20
2023-03-13T01:24:50.222Z,23.30
2023-03-13T01:25:00.268Z,33.60
2023-03-13T01:25:10.197Z,34.50
2023-03-13T01:25:20.262Z,32.00
2023-03-13T01:25:30.177Z,32.00
2023-03-13T01:25:41.029Z,24.60
2023-03-13T01:25:50.245Z,26.10
2023-03-13T01:26:00.222Z,19.80
2023-03-13T01:26:10.247Z,24.00
2023-03-13T01:26:20.185Z,29.60
2023-03-13T01:26:30.198Z,29.70
2023-03-13T01:26:40.192Z,29.70
2023-03-13T01:26:50.210Z,27.20
2023-03-13T01:27:00.201Z,28.70
2023-03-13T01:27:10.350Z,34.20
2023-03-13T01:27:20.173Z,34.10
2023-03-13T01:27:30.188Z,34.70
2023-03-13T01:27:40.333Z,27.00
2023-03-13T01:27:50.171Z,22.70
2023-03-13T01:28:00.181Z,18.90
2023-03-13T01:28:10.184Z,13.00
2023-03-13T01:28:20.169Z,13.30
2023-03-13T01:28:30.181Z,17.90
2023-03-13T01:28:40.169Z,24.20
2023-03-13T01:28:50.186Z,24.10
2023-03-13T01:29:00.184Z,17.20
2023-03-13T01:29:10.209Z,15.20
2023-03-13T01:29:20.257Z,23.40
2023-03-13T01:29:30.221Z,31.70
2023-03-13T01:29:40.226Z,34.00
2023-03-13T01:29:50.184Z,29.60
2023-03-13T01:30:00.182Z,34.70
2023-03-13T01:30:10.179Z,32.90
2023-03-13T01:30:20.184Z,33.30
2023-03-13T01:30:30.319Z,24.40
2023-03-13T01:30:40.175Z,24.50
2023-03-13T01:30:50.238Z,19.50
2023-03-13T01:31:00.241Z,17.10
2023-03-13T01:31:10.266Z,16.30
2023-03-13T01:31:21.145Z,19.70
2023-03-13T01:31:30.245Z,17.70
2023-03-13T01:31:40.255Z,18.20
2023-03-13T01:31:50.173Z,19.10
2023-03-13T01:32:00.166Z,19.70
2023-03-13T01:32:10.163Z,22.30
2023-03-13T01:32:20.217Z,20.60
2023-03-13T01:32:30.196Z,28.50
2023-03-13T01:32:40.263Z,21.10
2023-03-13T01:32:50.189Z,19.30
2023-03-13T01:33:00.160Z,13.40
2023-03-13T01:33:10.218Z,15.50
2023-03-13T01:33:21.049Z,16.00
2023-03-13T01:33:30.285Z,16.00
2023-03-13T01:33:40.171Z,21.10
2023-03-13T01:33:50.199Z,18.10
2023-03-13T01:34:00.166Z,27.50
2023-03-13T01:34:10.158Z,28.30
2023-03-13T01:34:20.153Z,28.50
2023-03-13T01:34:30.149Z,20.60
2023-03-13T01:34:40.156Z,20.90
2023-03-13T01:34:50.143Z,18.90
2023-03-13T01:35:00.150Z,15.30
2023-03-13T01:35:10.179Z,14.80
2023-03-13T01:35:20.169Z,22.80
2023-03-13T01:35:31.064Z,28.40
2023-03-13T01:35:40.336Z,35.60
2023-03-13T01:35:50.203Z,36.20
2023-03-13T01:36:00.225Z,35.20
2023-03-13T01:36:10.164Z,25.90
2023-03-13T01:36:20.139Z,19.60
2023-03-13T01:36:30.150Z,22.40
2023-03-13T01:36:40.998Z,17.00
2023-03-13T01:36:50.131Z,17.90
2023-03-13T01:37:00.139Z,12.50
2023-03-13T01:37:10.132Z,20.00
2023-03-13T01:37:20.133Z,24.80
2023-03-13T01:37:31.057Z,19.90
2023-03-13T01:37:40.248Z,20.90
2023-03-13T01:37:50.149Z,24.20
2023-03-13T01:38:00.152Z,25.90
2023-03-13T01:38:10.127Z,19.10
2023-03-13T01:38:20.144Z,15.20
2023-03-13T01:38:30.138Z,15.60
2023-03-13T01:38:40.136Z,22.30
2023-03-13T01:38:50.170Z,23.50
2023-03-13T01:39:00.149Z,27.30
2023-03-13T01:39:10.127Z,23.90
2023-03-13T01:39:20.141Z,23.00
2023-03-13T01:39:30.144Z,22.00
2023-03-13T01:39:41.040Z,25.40
2023-03-13T01:39:50.149Z,31.70
2023-03-13T01:40:00.153Z,35.30
2023-03-13T01:40:10.130Z,30.60
2023-03-13T01:40:20.130Z,26.30
2023-03-13T01:40:30.120Z,29.10
2023-03-13T01:40:40.123Z,35.00
2023-03-13T01:40:50.159Z,37.30
2023-03-13T01:41:00.139Z,37.00
2023-03-13T01:41:10.113Z,38.90
2023-03-13T01:41:20.137Z,29.50
2023-03-13T01:41:30.208Z,20.60
2023-03-13T01:41:40.140Z,10.80
2023-03-13T01:41:50.248Z,16.40
2023-03-13T01:42:00.121Z,30.70
2023-03-13T01:42:10.125Z,31.40
2023-03-13T01:42:20.143Z,25.00
2023-03-13T01:42:30.121Z,9.00
2023-03-13T01:42:40.132Z,9.20
2023-03-13T01:42:50.136Z,14.30
2023-03-13T01:43:00.162Z,21.50
2023-03-13T01:43:14.513Z,24.00
2023-03-13T01:43:26.465Z,23.20
2023-03-13T01:43:30.131Z,23.60
2023-03-13T01:43:40.153Z,25.70
2023-03-13T01:43:51.036Z,23.30
2023-03-13T01:44:00.150Z,23.60
2023-03-13T01:44:10.107Z,22.70
2023-03-13T01:44:20.100Z,22.00
2023-03-13T01:44:30.127Z,20.30
2023-03-13T01:44:40.134Z,19.40
2023-03-13T01:44:50.129Z,17.50
2023-03-13T01:45:00.113Z,19.80
2023-03-13T01:45:10.118Z,17.50
2023-03-13T01:45:20.110Z,23.10
2023-03-13T01:45:30.129Z,25.40
2023-03-13T01:45:40.126Z,30.30
2023-03-13T01:45:51.117Z,33.40
2023-03-13T01:46:01.138Z,35.00
2023-03-13T01:46:10.226Z,34.30
2023-03-13T01:46:20.236Z,30.30
2023-03-13T01:46:30.284Z,22.60
2023-03-13T01:46:40.195Z,25.80
2023-03-13T01:46:50.193Z,23.20
2023-03-13T01:47:00.227Z,25.20
2023-03-13T01:47:10.092Z,26.60
2023-03-13T01:47:20.094Z,24.80
2023-03-13T01:47:30.128Z,24.40
2023-03-13T01:47:40.123Z,20.00
2023-03-13T01:47:50.120Z,24.90
2023-03-13T01:48:00.135Z,18.70
2023-03-13T01:48:11.053Z,16.80
2023-03-13T01:48:21.026Z,17.40
2023-03-13T01:48:30.127Z,23.40
2023-03-13T01:48:40.192Z,22.50
2023-03-13T01:48:50.104Z,20.70
2023-03-13T01:49:00.143Z,24.30
2023-03-13T01:49:10.092Z,28.20
2023-03-13T01:49:20.087Z,32.70
2023-03-13T01:49:30.254Z,27.20
2023-03-13T01:49:40.098Z,23.40
2023-03-13T01:49:50.079Z,17.20
2023-03-13T01:50:00.242Z,18.70
2023-03-13T01:50:10.176Z,17.10
2023-03-13T01:50:20.138Z,22.60
2023-03-13T01:50:30.077Z,25.10
2023-03-13T01:50:40.164Z,34.10
2023-03-13T01:50:50.104Z,31.30
2023-03-13T01:51:00.100Z,31.00
2023-03-13T01:51:10.158Z,23.50
2023-03-13T01:51:20.097Z,24.00
2023-03-13T01:51:30.148Z,26.70
2023-03-13T01:51:40.163Z,35.50
2023-03-13T01:51:50.146Z,35.20
2023-03-13T01:52:00.145Z,26.20
2023-03-13T01:52:11.040Z,22.00
2023-03-13T01:52:20.217Z,23.50
2023-03-13T01:52:30.084Z,30.40
2023-03-13T01:52:40.117Z,27.10
2023-03-13T01:52:50.123Z,20.60
2023-03-13T01:53:00.088Z,15.70
2023-03-13T01:53:10.091Z,18.80
2023-03-13T01:53:20.070Z,16.20
2023-03-13T01:53:30.084Z,23.40
2023-03-13T01:53:40.076Z,25.00
2023-03-13T01:53:50.161Z,25.10
2023-03-13T01:54:00.130Z,24.40
2023-03-13T01:54:10.100Z,18.50
2023-03-13T01:54:20.063Z,24.90
2023-03-13T01:54:30.064Z,23.40
2023-03-13T01:54:40.076Z,23.70
2023-03-13T01:54:50.057Z,29.80
2023-03-13T01:55:00.092Z,29.60
2023-03-13T01:55:10.106Z,33.40
2023-03-13T01:55:20.074Z,31.30
2023-03-13T01:55:30.053Z,31.10
2023-03-13T01:55:40.113Z,35.20
2023-03-13T01:55:50.067Z,31.90
2023-03-13T01:56:00.080Z,30.20
2023-03-13T01:56:10.056Z,27.80
2023-03-13T01:56:20.598Z,29.00
2023-03-13T01:56:30.065Z,30.80
2023-03-13T01:56:40.082Z,28.70
2023-03-13T01:56:50.090Z,25.80
2023-03-13T01:57:00.275Z,19.70
2023-03-13T01:57:10.065Z,14.10
2023-03-13T01:57:20.062Z,11.40
2023-03-13T01:57:30.085Z,14.70
2023-03-13T01:57:40.050Z,23.40
2023-03-13T01:57:50.072Z,32.40
2023-03-13T01:58:00.092Z,33.10
2023-03-13T01:58:10.050Z,28.90
2023-03-13T01:58:21.084Z,21.80
2023-03-13T01:58:31.036Z,28.50
2023-03-13T01:58:40.042Z,26.80
2023-03-13T01:58:50.044Z,28.00
2023-03-13T01:59:00.042Z,25.20
2023-03-13T01:59:10.057Z,29.00
2023-03-13T01:59:20.084Z,29.60
2023-03-13T01:59:30.078Z,30.50
2023-03-13T01:59:40.038Z,31.50
2023-03-13T01:59:50.053Z,29.60
2023-03-13T02:00:00.070Z,31.10
2023-03-13T02:00:10.047Z,23.20
2023-03-13T02:00:20.117Z,26.80
2023-03-13T02:00:30.303Z,23.50
2023-03-13T02:00:40.038Z,23.70
2023-03-13T02:00:50.057Z,19.80
2023-03-13T02:01:00.037Z,15.60
2023-03-13T02:01:10.066Z,15.20
2023-03-13T02:01:20.084Z,16.80
2023-03-13T02:01:31.155Z,23.50
2023-03-13T02:01:40.144Z,30.80
2023-03-13T02:01:50.092Z,35.60
2023-03-13T02:02:00.258Z,26.00
2023-03-13T02:02:10.060Z,26.90
2023-03-13T02:02:20.081Z,24.10
2023-03-13T02:02:30.603Z,32.50
2023-03-13T02:02:40.231Z,27.50
2023-03-13T02:02:50.106Z,24.20
2023-03-13T02:03:00.131Z,18.30
2023-03-13T02:03:10.130Z,13.50
2023-03-13T02:03:20.034Z,12.20
2023-03-13T02:03:30.021Z,19.90
2023-03-13T02:03:40.037Z,22.20
2023-03-13T02:03:50.032Z,31.30
2023-03-13T02:04:00.050Z,30.30
2023-03-13T02:04:10.041Z,41.40
2023-03-13T02:04:20.024Z,34.60
2023-03-13T02:04:30.044Z,35.90
2023-03-13T02:04:40.098Z,27.40
2023-03-13T02:04:50.031Z,29.90
2023-03-13T02:05:00.036Z,19.40
2023-03-13T02:05:10.059Z,17.90
2023-03-13T02:05:20.033Z,17.10
2023-03-13T02:05:30.023Z,24.30
2023-03-13T02:05:40.053Z,24.40
2023-03-13T02:05:50.029Z,23.00
2023-03-13T02:06:00.041Z,22.80
2023-03-13T02:06:10.118Z,27.50
2023-03-13T02:06:20.633Z,32.50
2023-03-13T02:06:30.020Z,27.30
2023-03-13T02:06:40.612Z,29.10
2023-03-13T02:06:50.149Z,18.60
2023-03-13T02:07:00.117Z,26.70
2023-03-13T02:07:10.015Z,27.40
2023-03-13T02:07:20.035Z,27.20
2023-03-13T02:07:30.032Z,19.20
2023-03-13T02:07:40.029Z,10.80
2023-03-13T02:07:50.023Z,16.50
2023-03-13T02:08:00.041Z,25.40
2023-03-13T02:08:10.020Z,27.00
2023-03-13T02:08:20.003Z,32.70
2023-03-13T02:08:30.054Z,21.80
2023-03-13T02:08:40.041Z,20.30
2023-03-13T02:08:50.547Z,12.70